Time;durP1;ratioP1;P1;durP2;ratioP2;P2;SDS_P1;SDS_P2;PMS_P1;PMS_P2;Temp;Humidity;BMP_temperature;BMP_pressure;BME280_temperature;BME280_humidity;BME280_pressure;Samples;Min_cycle;Max_cycle;Signal;HPM_P1;HPM_P2
2021/03/16 00:00:20;;;;;;;10.77;6.07;;;;;;;;;;4995568;28;20191;-78
2021/03/16 00:02:46;;;;;;;11.25;6.28;;;;;;;;;;4998133;28;20251;-78
2021/03/16 00:05:12;;;;;;;10.20;6.25;;;;;;;;;;4996240;28;20206;-79
2021/03/16 00:07:38;;;;;;;12.07;6.00;;;;;;;;;;4996381;28;20191;-78
2021/03/16 00:10:05;;;;;;;12.07;6.53;;;;;;;;;;4995737;28;20187;-78
2021/03/16 00:12:31;;;;;;;13.90;6.50;;;;;;;;;;4995729;28;20207;-78
2021/03/16 00:14:57;;;;;;;8.17;5.53;;;;;;;;;;4983648;28;20191;-78
2021/03/16 00:17:23;;;;;;;8.33;6.50;;;;;;;;;;4983542;28;20446;-77
2021/03/16 00:19:49;;;;;;;10.63;6.88;;;;;;;;;;5002944;28;20465;-78
2021/03/16 00:22:15;;;;;;;9.45;6.95;;;;;;;;;;5004204;28;20191;-78
2021/03/16 00:24:41;;;;;;;10.40;6.30;;;;;;;;;;5001692;28;20178;-78
2021/03/16 00:27:07;;;;;;;12.68;7.10;;;;;;;;;;4998507;28;20189;-78
2021/03/16 00:29:33;;;;;;;9.02;7.22;;;;;;;;;;5002670;28;20256;-78
2021/03/16 00:31:59;;;;;;;9.05;5.93;;;;;;;;;;4996944;28;20254;-78
2021/03/16 00:34:25;;;;;;;10.10;6.70;;;;;;;;;;4987666;28;20184;-78
2021/03/16 00:36:51;;;;;;;9.18;5.82;;;;;;;;;;4998874;28;20430;-78
2021/03/16 00:39:17;;;;;;;6.32;5.00;;;;;;;;;;4995420;28;20183;-78
2021/03/16 00:41:43;;;;;;;12.50;6.40;;;;;;;;;;5003512;28;20183;-78
2021/03/16 00:44:09;;;;;;;7.95;6.03;;;;;;;;;;5001017;28;20427;-79
2021/03/16 00:46:36;;;;;;;8.98;5.60;;;;;;;;;;4992083;28;20211;-79
2021/03/16 00:49:02;;;;;;;5.97;5.07;;;;;;;;;;5002246;28;20273;-78
2021/03/16 00:51:28;;;;;;;6.45;4.85;;;;;;;;;;4995316;28;20205;-78
2021/03/16 00:53:54;;;;;;;11.02;5.38;;;;;;;;;;4995728;28;20285;-77
2021/03/16 00:56:20;;;;;;;8.43;6.03;;;;;;;;;;4981965;28;20640;-78
2021/03/16 00:58:46;;;;;;;12.23;6.40;;;;;;;;;;5002220;28;20198;-78
2021/03/16 01:01:12;;;;;;;8.50;6.17;;;;;;;;;;4988849;28;20430;-78
2021/03/16 01:03:38;;;;;;;6.93;5.57;;;;;;;;;;5005698;28;20437;-78
2021/03/16 01:06:04;;;;;;;8.10;5.13;;;;;;;;;;4994767;28;20442;-78
2021/03/16 01:08:30;;;;;;;7.47;4.95;;;;;;;;;;4993212;28;20438;-79
2021/03/16 01:10:56;;;;;;;6.45;4.78;;;;;;;;;;4997673;28;20262;-79
2021/03/16 01:13:23;;;;;;;17.30;5.35;;;;;;;;;;4987778;28;20184;-78
2021/03/16 01:15:49;;;;;;;6.10;4.68;;;;;;;;;;5000792;28;20183;-78
2021/03/16 01:18:15;;;;;;;8.40;5.15;;;;;;;;;;4995207;28;20190;-79
2021/03/16 01:20:42;;;;;;;6.60;4.90;;;;;;;;;;5002477;28;20215;-78
2021/03/16 01:23:08;;;;;;;11.65;5.20;;;;;;;;;;4994841;28;20187;-78
2021/03/16 01:25:34;;;;;;;9.88;5.38;;;;;;;;;;5000910;28;20541;-78
2021/03/16 01:28:00;;;;;;;8.23;4.10;;;;;;;;;;4993139;28;20184;-78
2021/03/16 01:30:26;;;;;;;9.30;5.35;;;;;;;;;;4998436;28;20195;-78
2021/03/16 01:32:53;;;;;;;8.93;4.53;;;;;;;;;;4982362;28;20238;-78
2021/03/16 01:35:19;;;;;;;8.70;4.95;;;;;;;;;;4992523;28;20210;-78
2021/03/16 01:37:45;;;;;;;6.85;5.25;;;;;;;;;;4995558;28;20704;-78
2021/03/16 01:40:11;;;;;;;7.55;5.22;;;;;;;;;;4998510;28;20234;-78
2021/03/16 01:42:37;;;;;;;7.72;4.60;;;;;;;;;;4995196;28;20322;-79
2021/03/16 01:45:08;;;;;;;8.82;4.85;;;;;;;;;;4993935;28;20539;-79
2021/03/16 01:47:34;;;;;;;8.15;5.05;;;;;;;;;;5003740;28;20231;-78
2021/03/16 01:50:03;;;;;;;7.20;4.95;;;;;;;;;;4996644;28;20202;-78
2021/03/16 01:52:29;;;;;;;5.53;4.45;;;;;;;;;;5006971;28;20198;-78
2021/03/16 01:54:56;;;;;;;5.10;4.15;;;;;;;;;;4995342;28;20198;-78
2021/03/16 01:57:23;;;;;;;6.43;3.78;;;;;;;;;;4986532;28;20197;-78
2021/03/16 01:59:50;;;;;;;8.23;4.82;;;;;;;;;;4996866;28;20673;-78
2021/03/16 02:02:16;;;;;;;4.80;4.30;;;;;;;;;;4978581;28;20195;-78
2021/03/16 02:04:42;;;;;;;6.00;4.50;;;;;;;;;;5010318;28;20247;-78
2021/03/16 02:07:13;;;;;;;8.25;4.88;;;;;;;;;;4989750;28;20190;-78
2021/03/16 02:09:52;;;;;;;7.80;5.07;;;;;;;;;;4996359;28;20247;-78
2021/03/16 02:12:26;;;;;;;6.25;4.90;;;;;;;;;;4994112;28;20206;-78
2021/03/16 02:14:57;;;;;;;8.27;5.57;;;;;;;;;;4994436;28;20183;-77
2021/03/16 02:17:27;;;;;;;7.45;5.45;;;;;;;;;;4989892;28;20187;-78
2021/03/16 02:19:55;;;;;;;13.40;6.40;;;;;;;;;;4998610;28;20282;-79
2021/03/16 02:22:22;;;;;;;6.10;5.03;;;;;;;;;;4996603;28;20179;-78
2021/03/16 02:24:48;;;;;;;9.10;5.78;;;;;;;;;;4995397;28;20238;-78
2021/03/16 02:27:15;;;;;;;7.95;5.07;;;;;;;;;;4994186;28;20222;-78
2021/03/16 02:29:56;;;;;;;6.93;5.18;;;;;;;;;;4982311;28;20223;-78
2021/03/16 02:32:24;;;;;;;9.23;5.18;;;;;;;;;;4973341;28;20207;-78
2021/03/16 02:34:52;;;;;;;12.02;6.00;;;;;;;;;;5003516;28;20180;-78
2021/03/16 02:37:18;;;;;;;4.72;4.28;;;;;;;;;;5000683;28;20210;-78
2021/03/16 02:39:46;;;;;;;10.55;6.00;;;;;;;;;;4999662;28;20250;-78
2021/03/16 02:42:12;;;;;;;10.80;5.38;;;;;;;;;;4997495;28;20195;-78
2021/03/16 02:44:39;;;;;;;12.50;6.22;;;;;;;;;;4999988;28;20187;-78
2021/03/16 02:47:05;;;;;;;9.98;5.50;;;;;;;;;;4999426;28;20194;-78
2021/03/16 02:49:33;;;;;;;11.68;6.38;;;;;;;;;;5000016;28;20226;-78
2021/03/16 02:51:59;;;;;;;9.77;6.75;;;;;;;;;;5001587;28;20230;-77
2021/03/16 02:54:26;;;;;;;9.30;6.30;;;;;;;;;;4997959;28;20230;-78
2021/03/16 02:56:53;;;;;;;13.63;6.65;;;;;;;;;;4997390;28;20188;-78
2021/03/16 02:59:19;;;;;;;10.43;6.05;;;;;;;;;;5003846;28;20218;-78
2021/03/16 03:01:46;;;;;;;13.50;6.63;;;;;;;;;;4995183;28;20291;-78
2021/03/16 03:04:12;;;;;;;14.15;6.55;;;;;;;;;;5000404;28;20314;-78
2021/03/16 03:06:39;;;;;;;9.85;7.10;;;;;;;;;;4996289;28;20176;-78
2021/03/16 03:09:06;;;;;;;8.15;6.70;;;;;;;;;;4996076;28;20191;-78
2021/03/16 03:11:32;;;;;;;12.23;7.53;;;;;;;;;;4982487;28;20229;-78
2021/03/16 03:13:59;;;;;;;18.73;7.82;;;;;;;;;;5000465;28;20195;-78
2021/03/16 03:16:26;;;;;;;11.63;7.03;;;;;;;;;;4988833;28;20606;-77
2021/03/16 03:18:52;;;;;;;12.73;8.32;;;;;;;;;;4998922;28;20179;-78
2021/03/16 03:21:22;;;;;;;12.33;7.30;;;;;;;;;;4998436;28;20187;-78
2021/03/16 03:23:55;;;;;;;15.15;8.57;;;;;;;;;;4998738;28;20439;-78
2021/03/16 03:26:32;;;;;;;14.07;7.90;;;;;;;;;;4993633;28;20262;-78
2021/03/16 03:28:59;;;;;;;16.02;8.23;;;;;;;;;;5003432;28;20187;-78
2021/03/16 03:31:26;;;;;;;12.13;8.05;;;;;;;;;;5004968;28;20225;-77
2021/03/16 03:33:53;;;;;;;13.38;7.40;;;;;;;;;;5003287;28;20258;-78
2021/03/16 03:36:19;;;;;;;13.75;7.60;;;;;;;;;;4998689;28;20186;-78
2021/03/16 03:38:46;;;;;;;15.07;8.23;;;;;;;;;;4997632;28;20248;-78
2021/03/16 03:41:12;;;;;;;14.55;7.90;;;;;;;;;;4997369;28;20187;-78
2021/03/16 03:43:38;;;;;;;13.85;8.43;;;;;;;;;;5003298;28;20186;-78
2021/03/16 03:46:05;;;;;;;16.17;8.65;;;;;;;;;;5000456;28;20186;-78
2021/03/16 03:48:32;;;;;;;13.90;8.75;;;;;;;;;;4998083;28;20226;-78
2021/03/16 03:51:00;;;;;;;17.13;8.25;;;;;;;;;;4997429;28;20187;-78
2021/03/16 03:53:26;;;;;;;11.98;8.70;;;;;;;;;;4983425;28;20183;-78
2021/03/16 03:55:53;;;;;;;15.15;9.88;;;;;;;;;;4999531;28;20186;-78
2021/03/16 03:58:19;;;;;;;12.52;9.60;;;;;;;;;;4986947;28;20175;-78
2021/03/16 04:00:46;;;;;;;18.38;9.25;;;;;;;;;;5005691;28;20179;-78
2021/03/16 04:03:12;;;;;;;14.75;10.18;;;;;;;;;;4995007;28;20198;-78
2021/03/16 04:05:39;;;;;;;17.48;8.85;;;;;;;;;;5000279;28;20254;-78
2021/03/16 04:08:05;;;;;;;13.82;8.80;;;;;;;;;;5000955;28;20187;-78
2021/03/16 04:10:35;;;;;;;17.20;9.77;;;;;;;;;;4998767;28;20198;-78
2021/03/16 04:13:01;;;;;;;20.05;10.00;;;;;;;;;;5000281;28;20223;-78
2021/03/16 04:15:28;;;;;;;14.10;10.15;;;;;;;;;;4999132;28;20178;-79
2021/03/16 04:17:54;;;;;;;15.82;8.95;;;;;;;;;;4984599;28;20299;-78
2021/03/16 04:20:20;;;;;;;14.00;8.80;;;;;;;;;;4983641;28;20183;-79
2021/03/16 04:22:46;;;;;;;16.23;10.32;;;;;;;;;;5008564;28;20247;-79
2021/03/16 04:25:13;;;;;;;13.70;9.88;;;;;;;;;;4990918;28;20226;-79
2021/03/16 04:27:39;;;;;;;17.13;10.65;;;;;;;;;;4996073;28;20179;-78
2021/03/16 04:30:06;;;;;;;18.00;10.70;;;;;;;;;;5001976;28;20199;-78
2021/03/16 04:32:32;;;;;;;21.60;11.68;;;;;;;;;;5002902;28;20612;-78
2021/03/16 04:34:58;;;;;;;19.90;11.13;;;;;;;;;;5003037;28;20203;-79
2021/03/16 04:37:24;;;;;;;16.52;10.38;;;;;;;;;;4998303;28;20175;-78
2021/03/16 04:39:50;;;;;;;17.17;11.35;;;;;;;;;;5001280;28;20171;-78
2021/03/16 04:42:16;;;;;;;19.10;12.17;;;;;;;;;;4996688;28;20199;-78
2021/03/16 04:44:42;;;;;;;20.23;11.13;;;;;;;;;;4997510;28;20443;-79
2021/03/16 04:47:08;;;;;;;20.25;12.00;;;;;;;;;;4999899;28;20194;-78
2021/03/16 04:49:34;;;;;;;14.95;10.80;;;;;;;;;;4997592;28;20199;-78
2021/03/16 04:52:00;;;;;;;18.93;12.70;;;;;;;;;;4998715;28;20271;-79
2021/03/16 04:54:26;;;;;;;15.67;11.73;;;;;;;;;;4993530;28;20457;-79
2021/03/16 04:56:53;;;;;;;21.02;13.02;;;;;;;;;;4995910;28;20454;-78
2021/03/16 04:59:19;;;;;;;18.77;13.15;;;;;;;;;;5000631;28;20179;-78
2021/03/16 05:01:45;;;;;;;17.58;11.43;;;;;;;;;;4996591;28;20258;-78
2021/03/16 05:04:11;;;;;;;19.45;12.38;;;;;;;;;;4998968;28;20182;-77
2021/03/16 05:06:37;;;;;;;22.33;13.77;;;;;;;;;;4992319;28;20175;-79
2021/03/16 05:09:03;;;;;;;16.50;11.32;;;;;;;;;;5000354;28;20649;-78
2021/03/16 05:11:30;;;;;;;18.17;12.60;;;;;;;;;;4998720;28;20226;-78
2021/03/16 05:13:56;;;;;;;15.80;12.20;;;;;;;;;;4997620;28;20176;-78
2021/03/16 05:16:22;;;;;;;22.10;13.57;;;;;;;;;;4987906;28;20191;-78
2021/03/16 05:18:48;;;;;;;19.73;13.18;;;;;;;;;;4997129;28;20215;-77
2021/03/16 05:21:14;;;;;;;20.92;12.95;;;;;;;;;;4995434;28;20246;-78
2021/03/16 05:23:40;;;;;;;23.63;13.05;;;;;;;;;;4997140;28;20267;-78
2021/03/16 05:26:06;;;;;;;18.65;13.07;;;;;;;;;;5000853;28;20183;-78
2021/03/16 05:28:32;;;;;;;20.52;13.10;;;;;;;;;;4996910;28;20258;-78
2021/03/16 05:30:58;;;;;;;23.10;14.33;;;;;;;;;;5007598;28;20210;-78
2021/03/16 05:33:24;;;;;;;21.00;14.02;;;;;;;;;;4984284;28;20457;-78
2021/03/16 05:35:50;;;;;;;29.42;14.98;;;;;;;;;;5000352;28;20215;-78
2021/03/16 05:38:16;;;;;;;18.13;13.32;;;;;;;;;;4984389;28;20939;-79
2021/03/16 05:40:42;;;;;;;21.65;12.98;;;;;;;;;;5012888;28;20263;-79
2021/03/16 05:43:10;;;;;;;21.05;13.45;;;;;;;;;;4987980;28;20183;-79
2021/03/16 05:45:36;;;;;;;17.67;13.32;;;;;;;;;;5006446;28;20193;-79
2021/03/16 05:48:02;;;;;;;19.40;14.70;;;;;;;;;;5002705;28;20219;-78
2021/03/16 05:50:28;;;;;;;19.80;13.27;;;;;;;;;;4998072;28;20575;-79
2021/03/16 05:52:55;;;;;;;20.95;15.48;;;;;;;;;;4997447;28;20286;-78
2021/03/16 05:55:23;;;;;;;18.48;14.23;;;;;;;;;;4997579;28;20230;-79
2021/03/16 05:57:51;;;;;;;20.98;15.27;;;;;;;;;;5003712;28;20225;-78
2021/03/16 06:00:17;;;;;;;20.60;14.15;;;;;;;;;;4994007;28;20853;-80
2021/03/16 06:02:43;;;;;;;19.88;14.25;;;;;;;;;;4995950;28;20601;-78
2021/03/16 06:05:09;;;;;;;17.20;12.75;;;;;;;;;;4994335;28;20192;-79
2021/03/16 06:07:35;;;;;;;18.40;13.60;;;;;;;;;;5000708;28;20175;-79
2021/03/16 06:10:01;;;;;;;20.60;14.93;;;;;;;;;;4998595;28;20213;-80
2021/03/16 06:12:28;;;;;;;20.60;14.65;;;;;;;;;;4994651;28;20488;-80
2021/03/16 06:14:54;;;;;;;18.83;13.82;;;;;;;;;;4982309;28;20197;-80
2021/03/16 06:17:20;;;;;;;19.52;14.40;;;;;;;;;;4981641;28;20179;-80
2021/03/16 06:19:46;;;;;;;21.42;15.15;;;;;;;;;;4993793;28;20795;-82
2021/03/16 06:22:16;;;;;;;22.15;14.38;;;;;;;;;;5008960;28;20232;-79
2021/03/16 06:24:48;;;;;;;19.88;14.88;;;;;;;;;;4995722;28;20171;-81
2021/03/16 06:27:21;;;;;;;19.25;13.75;;;;;;;;;;4982755;28;20191;-79
2021/03/16 06:29:47;;;;;;;20.73;15.88;;;;;;;;;;4994830;28;20688;-81
2021/03/16 06:32:13;;;;;;;18.30;13.57;;;;;;;;;;4994757;28;20200;-79
2021/03/16 06:34:39;;;;;;;24.67;16.15;;;;;;;;;;4978614;28;20179;-79
2021/03/16 06:37:05;;;;;;;25.08;16.58;;;;;;;;;;5008180;28;20181;-81
2021/03/16 06:39:31;;;;;;;20.35;14.20;;;;;;;;;;4995405;28;20265;-79
2021/03/16 06:41:57;;;;;;;24.25;15.60;;;;;;;;;;4993399;28;20276;-80
2021/03/16 06:44:24;;;;;;;23.52;15.85;;;;;;;;;;4981246;28;20190;-79
2021/03/16 06:46:53;;;;;;;22.95;14.85;;;;;;;;;;4996001;28;20195;-79
2021/03/16 06:49:21;;;;;;;20.38;14.45;;;;;;;;;;4997011;28;20230;-78
2021/03/16 06:51:47;;;;;;;22.05;15.70;;;;;;;;;;4994893;28;20300;-79
2021/03/16 06:54:17;;;;;;;21.90;14.85;;;;;;;;;;4994485;28;20219;-79
2021/03/16 06:56:52;;;;;;;22.95;14.57;;;;;;;;;;4996095;28;20187;-79
2021/03/16 06:59:36;;;;;;;20.48;14.90;;;;;;;;;;4996949;28;20206;-79
2021/03/16 07:02:11;;;;;;;23.63;14.35;;;;;;;;;;4988941;28;20195;-79
2021/03/16 07:04:42;;;;;;;21.70;14.02;;;;;;;;;;4983230;28;20209;-79
2021/03/16 07:07:09;;;;;;;20.77;14.77;;;;;;;;;;5002076;28;20190;-80
2021/03/16 07:09:35;;;;;;;23.08;15.80;;;;;;;;;;4999244;28;20187;-80
2021/03/16 07:12:01;;;;;;;18.30;14.38;;;;;;;;;;4982210;28;20234;-78
2021/03/16 07:14:27;;;;;;;21.55;13.90;;;;;;;;;;4981709;28;20246;-79
2021/03/16 07:16:54;;;;;;;22.55;14.73;;;;;;;;;;4999231;28;20180;-79
2021/03/16 07:19:20;;;;;;;25.08;15.30;;;;;;;;;;4987546;28;20231;-78
2021/03/16 07:21:54;;;;;;;25.63;15.73;;;;;;;;;;5005415;28;20190;-78
2021/03/16 07:24:23;;;;;;;24.80;15.45;;;;;;;;;;5000035;28;20186;-79
2021/03/16 07:26:49;;;;;;;28.70;17.13;;;;;;;;;;5001262;28;20278;-78
2021/03/16 07:29:15;;;;;;;29.35;18.15;;;;;;;;;;4984893;28;20260;-78
2021/03/16 07:31:43;;;;;;;24.27;15.70;;;;;;;;;;4986925;28;20252;-77
2021/03/16 07:34:09;;;;;;;23.90;15.15;;;;;;;;;;5005681;28;20172;-80
2021/03/16 07:36:38;;;;;;;23.83;15.52;;;;;;;;;;5004839;28;20187;-77
2021/03/16 07:39:06;;;;;;;23.65;14.23;;;;;;;;;;5002847;28;20266;-78
2021/03/16 07:41:32;;;;;;;24.17;13.75;;;;;;;;;;5007328;28;20189;-79
2021/03/16 07:44:06;;;;;;;23.10;14.80;;;;;;;;;;5003024;28;20210;-78
2021/03/16 07:46:40;;;;;;;22.20;14.32;;;;;;;;;;4986589;28;20234;-79
2021/03/16 07:49:06;;;;;;;22.00;14.70;;;;;;;;;;5003563;28;20226;-79
2021/03/16 07:51:34;;;;;;;27.35;16.10;;;;;;;;;;5000034;28;20740;-81
2021/03/16 07:54:06;;;;;;;23.50;14.52;;;;;;;;;;5002900;28;20179;-78
2021/03/16 07:56:34;;;;;;;19.33;13.48;;;;;;;;;;5003154;28;20178;-78
2021/03/16 07:59:04;;;;;;;19.95;13.30;;;;;;;;;;5005045;28;20183;-79
2021/03/16 08:01:30;;;;;;;23.92;14.43;;;;;;;;;;4987307;28;20695;-79
2021/03/16 08:04:04;;;;;;;23.25;13.05;;;;;;;;;;5005404;28;20606;-77
2021/03/16 08:06:31;;;;;;;23.23;14.50;;;;;;;;;;4999800;28;20240;-78
2021/03/16 08:08:58;;;;;;;24.15;14.45;;;;;;;;;;4999891;28;20260;-78
2021/03/16 08:11:35;;;;;;;18.83;13.70;;;;;;;;;;5002171;28;20187;-78
2021/03/16 08:14:04;;;;;;;23.98;14.18;;;;;;;;;;5001984;28;20186;-78
2021/03/16 08:16:48;;;;;;;23.52;15.30;;;;;;;;;;5002523;28;20179;-78
2021/03/16 08:19:15;;;;;;;21.30;14.65;;;;;;;;;;5002074;28;20253;-78
2021/03/16 08:21:44;;;;;;;22.08;14.27;;;;;;;;;;4993852;28;20690;-79
2021/03/16 08:24:14;;;;;;;22.60;14.73;;;;;;;;;;5003771;28;20191;-79
2021/03/16 08:26:44;;;;;;;20.90;14.35;;;;;;;;;;4997919;28;20326;-80
2021/03/16 08:29:11;;;;;;;24.10;14.10;;;;;;;;;;4996436;28;20180;-81
2021/03/16 08:31:37;;;;;;;22.02;15.02;;;;;;;;;;4974075;28;20299;-80
2021/03/16 08:34:03;;;;;;;21.17;14.38;;;;;;;;;;4999629;28;20176;-82
2021/03/16 08:36:33;;;;;;;26.33;14.70;;;;;;;;;;4983886;28;20183;-81
2021/03/16 08:38:59;;;;;;;25.05;15.52;;;;;;;;;;4984309;28;20194;-81
2021/03/16 08:41:25;;;;;;;22.13;14.25;;;;;;;;;;4997662;28;20229;-79
2021/03/16 08:43:51;;;;;;;23.52;14.63;;;;;;;;;;4984716;28;20183;-81
2021/03/16 08:46:31;;;;;;;21.75;14.40;;;;;;;;;;4981944;28;20179;-80
2021/03/16 08:48:57;;;;;;;24.63;14.20;;;;;;;;;;5004012;28;20222;-81
2021/03/16 08:51:24;;;;;;;24.27;15.20;;;;;;;;;;5001797;28;20194;-82
2021/03/16 08:53:50;;;;;;;31.40;17.23;;;;;;;;;;5002030;28;20660;-81
2021/03/16 08:56:23;;;;;;;24.73;16.58;;;;;;;;;;5001689;28;20185;-81
2021/03/16 08:58:49;;;;;;;25.48;15.35;;;;;;;;;;5008423;28;20178;-81
2021/03/16 09:01:26;;;;;;;19.50;13.43;;;;;;;;;;4985789;28;20215;-82
2021/03/16 09:03:52;;;;;;;24.45;15.63;;;;;;;;;;5002784;28;20189;-80
2021/03/16 09:06:19;;;;;;;26.27;16.67;;;;;;;;;;5000489;28;20201;-81
2021/03/16 09:08:49;;;;;;;25.98;15.65;;;;;;;;;;4998198;28;20603;-81
2021/03/16 09:11:26;;;;;;;28.52;16.55;;;;;;;;;;4997745;28;20243;-81
2021/03/16 09:13:52;;;;;;;21.45;15.40;;;;;;;;;;5000587;28;20187;-81
2021/03/16 09:16:25;;;;;;;26.77;15.33;;;;;;;;;;4998850;28;20183;-81
2021/03/16 09:18:51;;;;;;;29.25;16.35;;;;;;;;;;4997458;28;20410;-84
2021/03/16 09:21:17;;;;;;;25.35;16.23;;;;;;;;;;4995306;28;20183;-82
2021/03/16 09:23:43;;;;;;;29.67;17.90;;;;;;;;;;4985207;28;20187;-81
2021/03/16 09:26:09;;;;;;;28.25;17.70;;;;;;;;;;5001034;28;20187;-81
2021/03/16 09:28:35;;;;;;;27.85;16.77;;;;;;;;;;4997738;28;20263;-82
2021/03/16 09:31:01;;;;;;;27.65;16.30;;;;;;;;;;4998814;28;20185;-82
2021/03/16 09:33:27;;;;;;;35.20;18.52;;;;;;;;;;4996874;28;20614;-79
2021/03/16 09:36:03;;;;;;;35.63;19.95;;;;;;;;;;4996596;28;20276;-80
2021/03/16 09:38:29;;;;;;;32.55;18.92;;;;;;;;;;4991641;28;20217;-81
2021/03/16 09:40:57;;;;;;;32.85;18.20;;;;;;;;;;4997489;28;20176;-83
2021/03/16 09:43:31;;;;;;;27.33;17.17;;;;;;;;;;4999170;28;20634;-82
2021/03/16 09:45:59;;;;;;;30.95;18.83;;;;;;;;;;5008641;28;20189;-82
2021/03/16 09:48:25;;;;;;;32.05;20.50;;;;;;;;;;4998330;28;20230;-80
2021/03/16 09:50:51;;;;;;;29.30;19.10;;;;;;;;;;4997109;28;20191;-82
2021/03/16 09:53:19;;;;;;;32.85;20.13;;;;;;;;;;5011307;28;20210;-80
2021/03/16 09:55:48;;;;;;;30.63;18.13;;;;;;;;;;4996265;28;20202;-82
2021/03/16 09:58:21;;;;;;;39.47;21.02;;;;;;;;;;4999353;28;20172;-81
2021/03/16 10:00:48;;;;;;;37.08;20.17;;;;;;;;;;4996466;28;20172;-81
2021/03/16 10:03:16;;;;;;;35.60;20.90;;;;;;;;;;4996007;28;20211;-83
2021/03/16 10:05:42;;;;;;;37.17;19.05;;;;;;;;;;4998892;28;20207;-82
2021/03/16 10:08:08;;;;;;;37.20;20.37;;;;;;;;;;4999731;28;20641;-81
2021/03/16 10:10:37;;;;;;;38.45;21.38;;;;;;;;;;4997364;28;20458;-81
2021/03/16 10:13:04;;;;;;;31.90;19.50;;;;;;;;;;4999259;28;20206;-81
2021/03/16 10:15:37;;;;;;;35.67;20.63;;;;;;;;;;4995315;28;20214;-82
2021/03/16 10:18:04;;;;;;;34.65;20.23;;;;;;;;;;4982536;28;20222;-79
2021/03/16 10:20:32;;;;;;;35.22;20.02;;;;;;;;;;4998562;28;20675;-81
2021/03/16 10:23:03;;;;;;;32.58;20.85;;;;;;;;;;4996548;28;20190;-80
2021/03/16 10:25:30;;;;;;;35.33;20.27;;;;;;;;;;4985928;28;20183;-81
2021/03/16 10:28:00;;;;;;;32.05;19.63;;;;;;;;;;4997145;28;20210;-81
2021/03/16 10:30:34;;;;;;;32.67;19.45;;;;;;;;;;4987459;28;20210;-81
2021/03/16 10:33:00;;;;;;;32.63;18.52;;;;;;;;;;4999652;28;20239;-80
2021/03/16 10:35:27;;;;;;;29.50;18.65;;;;;;;;;;4999479;28;20262;-81
2021/03/16 10:37:53;;;;;;;31.73;19.88;;;;;;;;;;4996879;28;20263;-81
2021/03/16 10:40:19;;;;;;;33.50;18.83;;;;;;;;;;4997211;28;20195;-81
2021/03/16 10:42:45;;;;;;;34.83;19.52;;;;;;;;;;4994987;28;20177;-81
2021/03/16 10:45:11;;;;;;;26.10;17.70;;;;;;;;;;4995693;28;20267;-81
2021/03/16 10:47:38;;;;;;;29.00;18.92;;;;;;;;;;4996569;28;21015;-81
2021/03/16 10:50:04;;;;;;;29.88;19.08;;;;;;;;;;4997000;28;20183;-82
2021/03/16 10:52:30;;;;;;;31.70;17.92;;;;;;;;;;4996926;28;20681;-82
2021/03/16 10:54:56;;;;;;;33.47;19.30;;;;;;;;;;5006960;28;20186;-83
2021/03/16 10:57:22;;;;;;;32.53;18.77;;;;;;;;;;5001301;28;20526;-82
2021/03/16 10:59:48;;;;;;;30.20;17.80;;;;;;;;;;5003811;28;20445;-81
2021/03/16 11:02:14;;;;;;;29.13;18.50;;;;;;;;;;5003990;28;20218;-82
2021/03/16 11:04:41;;;;;;;30.13;19.45;;;;;;;;;;5001965;28;20442;-82
2021/03/16 11:07:07;;;;;;;32.55;18.90;;;;;;;;;;5006696;28;20175;-82
2021/03/16 11:09:33;;;;;;;27.88;18.02;;;;;;;;;;4985917;28;20183;-82
2021/03/16 11:11:59;;;;;;;30.13;16.25;;;;;;;;;;4987103;28;20218;-82
2021/03/16 11:14:25;;;;;;;24.05;16.58;;;;;;;;;;5003566;28;20183;-82
2021/03/16 11:16:51;;;;;;;23.98;16.00;;;;;;;;;;4988599;28;20195;-82
2021/03/16 11:19:17;;;;;;;29.73;17.05;;;;;;;;;;5000975;28;20172;-82
2021/03/16 11:21:43;;;;;;;29.07;16.00;;;;;;;;;;5001374;28;20174;-82
2021/03/16 11:24:09;;;;;;;24.75;16.85;;;;;;;;;;4998921;28;20730;-82
2021/03/16 11:26:35;;;;;;;25.63;15.80;;;;;;;;;;4982362;28;20191;-82
2021/03/16 11:29:01;;;;;;;24.40;16.50;;;;;;;;;;5002487;28;20194;-83
2021/03/16 11:31:28;;;;;;;30.38;17.45;;;;;;;;;;4982748;28;20442;-82
2021/03/16 11:33:54;;;;;;;37.55;18.15;;;;;;;;;;4999367;28;20179;-84
2021/03/16 11:36:20;;;;;;;27.93;17.27;;;;;;;;;;4997524;28;20237;-83
2021/03/16 11:38:46;;;;;;;28.70;18.60;;;;;;;;;;4984781;28;20462;-81
2021/03/16 11:41:13;;;;;;;28.10;17.17;;;;;;;;;;5003151;28;20182;-80
2021/03/16 11:43:39;;;;;;;27.13;13.93;;;;;;;;;;5001571;28;20211;-80
2021/03/16 11:46:05;;;;;;;27.15;16.38;;;;;;;;;;4998899;28;20175;-81
2021/03/16 11:48:30;;;;;;;29.30;15.93;;;;;;;;;;4997356;28;20226;-80
2021/03/16 11:50:56;;;;;;;29.05;16.63;;;;;;;;;;5002048;28;20442;-81
2021/03/16 11:53:22;;;;;;;24.60;15.40;;;;;;;;;;4983814;28;20237;-80
2021/03/16 11:55:48;;;;;;;31.95;16.85;;;;;;;;;;4998632;28;20206;-81
2021/03/16 11:58:15;;;;;;;27.57;15.43;;;;;;;;;;5000846;28;20253;-80
2021/03/16 12:00:41;;;;;;;31.92;17.20;;;;;;;;;;4998573;28;20484;-81
2021/03/16 12:03:07;;;;;;;30.77;19.20;;;;;;;;;;5004013;28;20213;-79
2021/03/16 12:05:33;;;;;;;34.42;17.95;;;;;;;;;;4984516;28;20183;-79
2021/03/16 12:08:00;;;;;;;32.43;16.50;;;;;;;;;;5001294;28;20188;-79
2021/03/16 12:10:26;;;;;;;40.92;16.42;;;;;;;;;;4988501;28;20418;-79
2021/03/16 12:12:52;;;;;;;26.85;15.77;;;;;;;;;;5000035;28;20217;-78
2021/03/16 12:15:19;;;;;;;29.20;15.80;;;;;;;;;;4997121;28;20183;-78
2021/03/16 12:17:46;;;;;;;34.92;16.70;;;;;;;;;;4984589;28;20447;-79
2021/03/16 12:20:12;;;;;;;25.13;15.20;;;;;;;;;;5002789;28;20624;-79
2021/03/16 12:22:38;;;;;;;33.45;15.43;;;;;;;;;;5002134;28;20244;-78
2021/03/16 12:25:05;;;;;;;29.13;14.17;;;;;;;;;;5006035;28;20194;-79
2021/03/16 12:27:32;;;;;;;27.08;15.35;;;;;;;;;;4979822;28;20469;-78
2021/03/16 12:29:58;;;;;;;33.00;16.30;;;;;;;;;;5001484;28;20187;-78
2021/03/16 12:32:24;;;;;;;31.80;14.88;;;;;;;;;;4998897;28;20275;-78
2021/03/16 12:34:51;;;;;;;32.90;15.23;;;;;;;;;;4982403;28;20187;-77
2021/03/16 12:37:20;;;;;;;27.33;15.77;;;;;;;;;;4988516;28;20748;-77
2021/03/16 12:39:46;;;;;;;24.83;14.93;;;;;;;;;;5004289;28;20675;-77
2021/03/16 12:42:13;;;;;;;26.42;15.65;;;;;;;;;;4996382;28;20192;-76
2021/03/16 12:44:39;;;;;;;36.05;16.65;;;;;;;;;;4999643;28;20188;-77
2021/03/16 12:47:05;;;;;;;30.15;15.38;;;;;;;;;;5001350;28;20191;-77
2021/03/16 12:49:32;;;;;;;28.27;14.95;;;;;;;;;;4971102;28;20632;-77
2021/03/16 12:51:58;;;;;;;25.40;14.90;;;;;;;;;;5004162;28;20211;-77
2021/03/16 12:54:24;;;;;;;28.13;15.63;;;;;;;;;;4997606;28;20205;-77
2021/03/16 12:56:50;;;;;;;29.45;15.32;;;;;;;;;;5000578;28;20196;-76
2021/03/16 12:59:17;;;;;;;22.05;15.45;;;;;;;;;;5002254;28;20191;-77
2021/03/16 13:01:43;;;;;;;23.23;13.98;;;;;;;;;;4997852;28;20202;-77
2021/03/16 13:04:09;;;;;;;21.90;13.57;;;;;;;;;;5004968;28;20185;-77
2021/03/16 13:06:35;;;;;;;28.52;14.32;;;;;;;;;;4997954;28;20435;-78
2021/03/16 13:09:01;;;;;;;24.58;13.63;;;;;;;;;;5001807;28;20194;-77
2021/03/16 13:11:27;;;;;;;18.65;13.07;;;;;;;;;;4999140;28;20230;-78
2021/03/16 13:13:53;;;;;;;20.95;13.20;;;;;;;;;;4999754;28;20186;-78
2021/03/16 13:16:19;;;;;;;24.90;15.10;;;;;;;;;;5000157;28;20230;-77
2021/03/16 13:18:45;;;;;;;24.93;13.77;;;;;;;;;;5003323;28;20422;-77
2021/03/16 13:21:11;;;;;;;24.87;13.77;;;;;;;;;;5001430;28;20450;-78
2021/03/16 13:23:37;;;;;;;30.33;13.75;;;;;;;;;;5001090;28;20508;-78
2021/03/16 13:26:03;;;;;;;22.87;11.80;;;;;;;;;;5001907;28;20344;-78
2021/03/16 13:28:29;;;;;;;23.83;12.43;;;;;;;;;;5001374;28;20454;-77
2021/03/16 13:30:55;;;;;;;17.77;11.13;;;;;;;;;;5003665;28;20183;-77
2021/03/16 13:33:21;;;;;;;19.98;10.93;;;;;;;;;;5000856;28;20553;-78
2021/03/16 13:35:47;;;;;;;19.17;11.05;;;;;;;;;;5001397;28;20198;-78
2021/03/16 13:38:13;;;;;;;23.10;11.30;;;;;;;;;;5002770;28;20215;-78
2021/03/16 13:40:40;;;;;;;21.05;11.30;;;;;;;;;;4999169;28;20198;-76
2021/03/16 13:43:06;;;;;;;25.25;12.07;;;;;;;;;;5005307;28;20202;-79
2021/03/16 13:45:32;;;;;;;32.17;11.77;;;;;;;;;;4978616;28;20207;-77
2021/03/16 13:47:58;;;;;;;15.90;10.77;;;;;;;;;;4992926;28;20238;-78
2021/03/16 13:50:24;;;;;;;19.65;12.05;;;;;;;;;;4998859;28;20194;-79
2021/03/16 13:52:50;;;;;;;23.70;12.10;;;;;;;;;;4996418;28;20214;-79
2021/03/16 13:55:16;;;;;;;25.83;12.87;;;;;;;;;;5001130;28;20171;-78
2021/03/16 13:57:42;;;;;;;29.60;11.60;;;;;;;;;;4981011;28;21212;-79
2021/03/16 14:00:08;;;;;;;21.13;12.73;;;;;;;;;;5001089;28;20195;-79
2021/03/16 14:02:35;;;;;;;22.83;11.13;;;;;;;;;;5000603;28;20216;-80
2021/03/16 14:05:01;;;;;;;25.00;12.95;;;;;;;;;;5009114;28;20418;-79
2021/03/16 14:07:26;;;;;;;24.05;11.75;;;;;;;;;;4988108;28;20179;-78
2021/03/16 14:09:52;;;;;;;22.60;11.40;;;;;;;;;;4999919;28;20186;-79
2021/03/16 14:12:18;;;;;;;20.85;12.18;;;;;;;;;;4982637;28;20474;-78
2021/03/16 14:14:44;;;;;;;23.88;13.50;;;;;;;;;;4995126;28;20194;-78
2021/03/16 14:17:10;;;;;;;19.30;12.50;;;;;;;;;;4995969;28;20203;-77
2021/03/16 14:19:37;;;;;;;22.73;11.50;;;;;;;;;;5000291;28;20428;-78
2021/03/16 14:22:03;;;;;;;22.02;11.73;;;;;;;;;;4999055;28;20482;-78